Time;durP1;ratioP1;P1;durP2;ratioP2;P2;SDS_P1;SDS_P2;PMS_P1;PMS_P2;Temp;Humidity;BMP_temperature;BMP_pressure;BME280_temperature;BME280_humidity;BME280_pressure;Samples;Min_cycle;Max_cycle;Signal;HPM_P1;HPM_P2
2023/08/16 00:00:53;;;;;;;4.55;1.83;;;22.20;99.90;;;;;;4994470;28;20041;-79
2023/08/16 00:03:18;;;;;;;2.40;2.10;;;22.20;99.90;;;;;;4993994;28;20034;-78
2023/08/16 00:05:44;;;;;;;3.63;1.85;;;22.20;99.90;;;;;;4995593;28;20436;-78
2023/08/16 00:08:10;;;;;;;3.00;1.65;;;22.20;99.90;;;;;;4994284;28;20023;-79
2023/08/16 00:10:36;;;;;;;3.88;1.83;;;22.30;99.90;;;;;;4995112;28;20058;-78
2023/08/16 00:13:01;;;;;;;3.70;1.90;;;22.30;99.90;;;;;;4978257;28;20065;-79
2023/08/16 00:15:27;;;;;;;3.45;1.70;;;22.30;99.90;;;;;;4994863;28;20030;-78
2023/08/16 00:17:53;;;;;;;5.20;1.85;;;22.30;99.90;;;;;;4978424;28;20030;-78
2023/08/16 00:20:26;;;;;;;3.08;1.63;;;22.30;99.90;;;;;;4977429;28;20113;-78
2023/08/16 00:22:52;;;;;;;4.30;1.60;;;22.30;99.90;;;;;;4994212;28;20483;-78
2023/08/16 00:25:18;;;;;;;3.63;2.13;;;22.30;99.90;;;;;;4977295;28;20026;-78
2023/08/16 00:27:44;;;;;;;3.47;1.98;;;22.30;99.90;;;;;;4993852;28;20084;-78
2023/08/16 00:30:10;;;;;;;2.08;1.58;;;22.20;99.90;;;;;;4995363;28;20383;-78
2023/08/16 00:32:37;;;;;;;4.28;2.22;;;22.20;99.90;;;;;;4994687;28;20459;-78
2023/08/16 00:35:02;;;;;;;3.85;1.90;;;22.20;99.90;;;;;;4977760;28;20026;-78
2023/08/16 00:37:28;;;;;;;4.93;1.90;;;22.20;99.90;;;;;;4993367;28;20487;-78
2023/08/16 00:39:53;;;;;;;2.70;1.90;;;22.20;99.90;;;;;;4993758;28;20413;-78
2023/08/16 00:42:19;;;;;;;3.63;2.03;;;22.20;99.90;;;;;;4994513;28;20034;-78
2023/08/16 00:44:45;;;;;;;3.72;2.00;;;22.20;99.90;;;;;;4994655;28;20455;-79
2023/08/16 00:47:11;;;;;;;4.88;2.22;;;22.20;99.90;;;;;;4993993;28;20022;-78
2023/08/16 00:49:40;;;;;;;3.90;1.92;;;22.10;99.90;;;;;;4993083;28;20030;-77
2023/08/16 00:52:06;;;;;;;2.30;1.65;;;22.00;99.90;;;;;;4995170;28;20018;-78
2023/08/16 00:54:32;;;;;;;5.13;2.25;;;22.00;99.90;;;;;;4993213;28;20392;-78
2023/08/16 00:56:59;;;;;;;4.35;2.10;;;22.00;99.90;;;;;;4994634;28;20030;-78
2023/08/16 00:59:26;;;;;;;3.65;2.03;;;22.00;99.90;;;;;;4992954;28;20038;-78
2023/08/16 01:01:52;;;;;;;5.82;2.40;;;22.00;99.90;;;;;;4994307;28;20488;-78
2023/08/16 01:04:19;;;;;;;3.50;1.73;;;21.90;99.90;;;;;;4993097;28;20038;-81
2023/08/16 01:06:44;;;;;;;1.98;1.70;;;21.90;99.90;;;;;;4994453;28;20062;-78
2023/08/16 01:09:10;;;;;;;3.13;2.03;;;21.90;99.90;;;;;;4994408;28;20034;-80
2023/08/16 01:11:43;;;;;;;3.35;2.05;;;21.90;99.90;;;;;;4994026;28;20030;-78
2023/08/16 01:14:25;;;;;;;3.35;2.10;;;21.90;99.90;;;;;;4977540;28;20443;-79
2023/08/16 01:16:51;;;;;;;;;;;21.90;99.90;;;;;;4995081;28;20037;-78
2023/08/16 01:19:27;;;;;;;2.67;1.95;;;21.80;99.90;;;;;;4992612;28;19905;-78
2023/08/16 01:22:04;;;;;;;4.82;2.10;;;21.80;99.90;;;;;;4994578;28;20038;-78
2023/08/16 01:24:36;;;;;;;2.85;2.15;;;21.70;99.90;;;;;;4992648;28;20106;-79
2023/08/16 01:27:03;;;;;;;4.93;1.80;;;21.80;99.90;;;;;;4993405;28;20036;-80
2023/08/16 01:29:30;;;;;;;4.38;2.58;;;21.80;99.90;;;;;;4992415;28;20080;-78
2023/08/16 01:31:56;;;;;;;3.05;2.22;;;21.80;99.90;;;;;;4994200;28;20031;-80
2023/08/16 01:34:21;;;;;;;5.90;2.10;;;21.70;99.90;;;;;;4993665;28;20436;-77
2023/08/16 01:36:48;;;;;;;3.97;2.60;;;21.70;99.90;;;;;;4993134;28;20468;-78
2023/08/16 01:39:13;;;;;;;3.20;1.97;;;21.70;99.90;;;;;;4992917;28;20026;-78
2023/08/16 01:41:43;;;;;;;5.05;2.20;;;21.60;99.90;;;;;;4993440;28;20220;-78
2023/08/16 01:44:11;;;;;;;4.97;2.08;;;21.60;99.90;;;;;;4994067;28;20027;-78
2023/08/16 01:46:38;;;;;;;4.13;2.28;;;21.60;99.90;;;;;;4993078;28;20267;-78
2023/08/16 01:49:05;;;;;;;3.13;2.17;;;21.60;99.90;;;;;;4976820;28;20026;-78
2023/08/16 01:51:31;;;;;;;4.80;2.65;;;21.60;99.90;;;;;;4992423;28;20121;-77
2023/08/16 01:53:57;;;;;;;9.13;3.30;;;21.60;99.90;;;;;;4993074;28;20065;-78
2023/08/16 01:56:22;;;;;;;3.53;2.40;;;21.50;99.90;;;;;;4993643;28;20037;-77
2023/08/16 01:58:48;;;;;;;2.80;2.17;;;21.50;99.90;;;;;;4992938;28;20030;-78
2023/08/16 02:01:14;;;;;;;3.10;2.00;;;21.50;99.90;;;;;;4993052;28;20037;-78
2023/08/16 02:03:40;;;;;;;4.18;2.47;;;21.60;99.90;;;;;;4992661;28;20068;-78
2023/08/16 02:06:06;;;;;;;3.78;2.45;;;21.60;99.90;;;;;;4994322;28;20068;-78
2023/08/16 02:08:31;;;;;;;4.50;2.70;;;21.60;99.90;;;;;;4996884;28;20033;-78
2023/08/16 02:10:57;;;;;;;3.83;2.58;;;21.50;99.90;;;;;;4996587;28;20038;-78
2023/08/16 02:13:23;;;;;;;5.32;2.50;;;21.50;99.90;;;;;;4979309;28;20117;-77
2023/08/16 02:15:48;;;;;;;4.93;2.58;;;21.50;99.90;;;;;;4996472;28;20121;-79
2023/08/16 02:18:14;;;;;;;5.15;2.45;;;21.50;99.90;;;;;;4997493;28;20049;-79
2023/08/16 02:20:40;;;;;;;5.97;2.92;;;21.50;99.90;;;;;;4996945;28;20027;-78
2023/08/16 02:23:07;;;;;;;4.28;2.85;;;21.50;99.90;;;;;;4996391;28;20088;-79
2023/08/16 02:25:33;;;;;;;4.20;2.65;;;21.40;99.90;;;;;;4995949;28;20026;-79
2023/08/16 02:27:59;;;;;;;3.67;2.60;;;21.50;99.90;;;;;;4996065;28;20037;-79
2023/08/16 02:30:25;;;;;;;6.10;2.40;;;21.50;99.90;;;;;;4995900;28;20038;-78
2023/08/16 02:32:50;;;;;;;3.58;2.50;;;21.50;99.90;;;;;;4996186;28;20029;-79
2023/08/16 02:35:16;;;;;;;6.03;2.60;;;21.50;99.90;;;;;;4980055;28;20085;-79
2023/08/16 02:37:42;;;;;;;4.05;2.90;;;21.60;99.90;;;;;;4979383;28;20475;-79
2023/08/16 02:40:08;;;;;;;3.70;2.70;;;21.60;99.90;;;;;;4996080;28;20030;-79
2023/08/16 02:42:34;;;;;;;4.45;2.90;;;21.60;99.90;;;;;;4979274;28;20034;-79
2023/08/16 02:45:00;;;;;;;3.50;2.50;;;21.60;99.90;;;;;;4995602;28;20054;-79
2023/08/16 02:47:26;;;;;;;5.28;2.80;;;21.60;99.90;;;;;;4996569;28;20023;-78
2023/08/16 02:49:52;;;;;;;4.45;2.70;;;21.60;99.90;;;;;;4997080;28;20533;-79
2023/08/16 02:52:18;;;;;;;3.72;2.95;;;21.50;99.90;;;;;;4996770;28;20050;-79
2023/08/16 02:54:43;;;;;;;4.78;3.08;;;21.50;99.90;;;;;;4995386;28;20054;-79
2023/08/16 02:57:09;;;;;;;4.85;3.22;;;21.60;99.90;;;;;;4995651;28;20038;-79
2023/08/16 02:59:43;;;;;;;4.32;2.63;;;21.50;99.90;;;;;;4995036;28;20022;-79
2023/08/16 03:02:08;;;;;;;3.88;2.75;;;21.40;99.90;;;;;;4995792;28;20037;-79
2023/08/16 03:04:38;;;;;;;4.47;2.70;;;21.40;99.90;;;;;;4995374;28;20030;-79
2023/08/16 03:07:08;;;;;;;6.10;3.08;;;21.50;99.90;;;;;;4996678;28;20050;-79
2023/08/16 03:09:34;;;;;;;5.95;2.88;;;21.50;99.90;;;;;;4995153;28;20037;-79
2023/08/16 03:12:00;;;;;;;5.32;2.90;;;21.60;99.90;;;;;;4996370;28;20054;-79
2023/08/16 03:14:27;;;;;;;3.40;2.65;;;21.50;99.90;;;;;;4978804;28;20031;-78
2023/08/16 03:16:53;;;;;;;6.47;2.85;;;21.60;99.90;;;;;;4995719;28;20027;-79
2023/08/16 03:19:19;;;;;;;6.65;2.67;;;21.60;99.90;;;;;;4995775;28;20405;-79
2023/08/16 03:21:44;;;;;;;3.85;2.75;;;21.60;99.90;;;;;;4995754;28;20030;-79
2023/08/16 03:24:10;;;;;;;5.68;2.65;;;21.60;99.90;;;;;;4996614;28;20029;-79
2023/08/16 03:26:36;;;;;;;4.25;2.58;;;21.60;99.90;;;;;;4978671;28;20026;-79
2023/08/16 03:29:03;;;;;;;4.15;2.80;;;21.60;99.90;;;;;;4996226;28;20040;-78
2023/08/16 03:31:29;;;;;;;7.47;2.83;;;21.60;99.90;;;;;;4994752;28;20107;-78
2023/08/16 03:33:54;;;;;;;4.60;3.00;;;21.60;99.90;;;;;;4996108;28;20027;-78
2023/08/16 03:36:20;;;;;;;3.50;2.70;;;21.60;99.90;;;;;;4966009;28;20034;-78
2023/08/16 03:38:46;;;;;;;5.90;2.90;;;21.60;99.90;;;;;;4984468;28;20030;-77
2023/08/16 03:41:11;;;;;;;4.68;3.03;;;21.60;99.90;;;;;;4974690;28;20043;-78
2023/08/16 03:43:37;;;;;;;6.43;3.05;;;21.60;99.90;;;;;;4986242;28;20030;-77
2023/08/16 03:46:05;;;;;;;5.75;3.47;;;21.60;99.90;;;;;;4985465;28;20054;-78
2023/08/16 03:48:31;;;;;;;5.25;3.10;;;21.50;99.90;;;;;;4980485;28;20051;-79
2023/08/16 03:50:57;;;;;;;3.95;2.97;;;21.50;99.90;;;;;;4989931;28;20096;-78
2023/08/16 03:53:23;;;;;;;4.32;2.88;;;21.50;99.90;;;;;;4979019;28;20027;-77
2023/08/16 03:55:55;;;;;;;7.20;2.90;;;21.60;99.90;;;;;;4986300;28;20026;-78
2023/08/16 03:58:21;;;;;;;4.07;2.72;;;21.50;99.90;;;;;;4981348;28;20126;-78
2023/08/16 04:00:53;;;;;;;3.92;2.60;;;21.60;99.90;;;;;;4989063;28;20178;-79
2023/08/16 04:03:19;;;;;;;6.03;3.33;;;21.60;99.90;;;;;;4962112;28;20038;-77
2023/08/16 04:05:45;;;;;;;6.65;3.10;;;21.60;99.90;;;;;;4992210;28;20057;-79
2023/08/16 04:08:11;;;;;;;6.97;3.38;;;21.50;99.90;;;;;;4983717;28;20058;-79
2023/08/16 04:10:37;;;;;;;4.20;2.92;;;21.50;99.90;;;;;;4971630;28;20034;-78
2023/08/16 04:13:04;;;;;;;5.95;3.03;;;21.50;99.90;;;;;;4978793;28;20027;-79
2023/08/16 04:15:29;;;;;;;6.10;3.92;;;21.50;99.90;;;;;;4987685;28;20208;-78
2023/08/16 04:17:56;;;;;;;5.65;3.42;;;21.40;99.90;;;;;;4995092;28;20058;-78
2023/08/16 04:20:22;;;;;;;6.55;3.50;;;21.30;99.90;;;;;;4985161;28;20033;-78
2023/08/16 04:22:48;;;;;;;5.93;3.30;;;21.30;99.90;;;;;;4986556;28;20027;-78
2023/08/16 04:25:14;;;;;;;5.20;3.70;;;21.30;99.90;;;;;;4978278;28;20727;-78
2023/08/16 04:27:40;;;;;;;4.68;3.38;;;21.20;99.90;;;;;;4988941;28;20062;-78
2023/08/16 04:30:07;;;;;;;5.60;3.10;;;21.20;99.90;;;;;;4972415;28;20065;-78
2023/08/16 04:32:32;;;;;;;5.07;3.25;;;21.30;99.90;;;;;;4984198;28;20030;-79
2023/08/16 04:34:58;;;;;;;4.97;3.10;;;21.30;99.90;;;;;;4988766;28;21885;-79
2023/08/16 04:37:23;;;;;;;5.93;3.30;;;21.30;99.90;;;;;;4984668;28;20027;-79
2023/08/16 04:39:49;;;;;;;5.10;2.92;;;21.30;99.90;;;;;;4981850;28;20034;-79
2023/08/16 04:42:15;;;;;;;6.50;3.05;;;21.30;99.90;;;;;;4966056;28;20035;-79
2023/08/16 04:44:41;;;;;;;7.72;3.45;;;21.40;99.90;;;;;;4962044;28;20062;-79
2023/08/16 04:47:07;;;;;;;5.40;2.65;;;21.40;99.90;;;;;;4974929;28;20038;-79
2023/08/16 04:49:33;;;;;;;5.43;2.92;;;21.30;99.90;;;;;;4970334;28;20035;-79
2023/08/16 04:51:59;;;;;;;5.90;3.00;;;21.30;99.90;;;;;;4970407;28;20065;-79
2023/08/16 04:54:24;;;;;;;5.88;3.10;;;21.30;99.90;;;;;;4965101;28;20085;-79
2023/08/16 04:56:50;;;;;;;4.00;3.20;;;21.30;99.90;;;;;;4988882;28;20161;-78
2023/08/16 04:59:16;;;;;;;5.20;3.03;;;21.30;99.90;;;;;;4958579;28;20032;-79
2023/08/16 05:01:42;;;;;;;7.95;3.20;;;21.30;99.90;;;;;;4984946;28;20042;-78
2023/08/16 05:04:09;;;;;;;5.72;3.15;;;21.30;99.90;;;;;;4955144;29;20492;-78
2023/08/16 05:06:35;;;;;;;5.88;3.10;;;21.30;99.90;;;;;;4959132;28;20469;-78
2023/08/16 05:09:01;;;;;;;5.13;2.72;;;21.30;99.90;;;;;;4968936;28;20027;-78
2023/08/16 05:11:26;;;;;;;5.30;3.17;;;21.30;99.90;;;;;;4982483;28;20444;-78
2023/08/16 05:13:52;;;;;;;5.50;2.95;;;21.40;99.90;;;;;;4959637;28;20113;-78
2023/08/16 05:16:18;;;;;;;5.97;3.28;;;21.40;99.90;;;;;;4965726;28;20035;-78
2023/08/16 05:18:43;;;;;;;6.18;3.17;;;21.40;99.90;;;;;;4965352;28;20103;-79
2023/08/16 05:21:09;;;;;;;5.30;3.03;;;21.50;99.90;;;;;;4973875;28;20031;-78
2023/08/16 05:23:35;;;;;;;5.97;3.10;;;21.40;99.90;;;;;;4969283;28;20038;-79
2023/08/16 05:26:01;;;;;;;5.63;3.10;;;21.40;99.90;;;;;;4961463;28;20101;-79
2023/08/16 05:28:26;;;;;;;4.07;2.95;;;21.40;99.90;;;;;;4979187;28;20039;-79
2023/08/16 05:30:52;;;;;;;5.20;3.15;;;21.40;99.90;;;;;;4964328;28;20042;-79
2023/08/16 05:33:17;;;;;;;4.55;3.28;;;21.40;99.90;;;;;;4986017;28;20023;-79
2023/08/16 05:35:44;;;;;;;6.45;2.80;;;21.40;99.90;;;;;;4961417;28;20019;-79
2023/08/16 05:38:09;;;;;;;6.80;3.08;;;21.50;99.90;;;;;;4986118;28;20057;-78
2023/08/16 05:40:35;;;;;;;9.57;3.97;;;21.50;99.90;;;;;;4972578;28;20086;-79
2023/08/16 05:43:00;;;;;;;4.65;3.40;;;21.50;99.90;;;;;;4978723;28;20028;-79
2023/08/16 05:45:28;;;;;;;5.00;3.63;;;21.50;99.90;;;;;;4974978;28;20539;-80
2023/08/16 05:47:54;;;;;;;9.32;3.80;;;21.50;99.90;;;;;;4987596;28;20085;-79
2023/08/16 05:50:21;;;;;;;5.53;3.85;;;21.50;99.90;;;;;;4975742;28;20063;-79
2023/08/16 05:52:47;;;;;;;7.15;3.67;;;21.50;99.90;;;;;;4980053;28;20041;-79
2023/08/16 05:55:12;;;;;;;5.25;3.85;;;21.60;99.90;;;;;;4973148;28;20114;-79
2023/08/16 05:57:38;;;;;;;7.80;3.95;;;21.60;99.90;;;;;;4973766;28;20464;-79
2023/08/16 06:00:04;;;;;;;5.30;4.03;;;21.50;99.90;;;;;;4980162;28;20031;-79
2023/08/16 06:02:30;;;;;;;8.10;4.40;;;21.50;99.90;;;;;;4981578;28;20058;-78
2023/08/16 06:04:57;;;;;;;6.15;3.78;;;21.50;99.90;;;;;;4971754;28;20053;-79
2023/08/16 06:07:23;;;;;;;7.88;4.05;;;21.40;99.90;;;;;;4975780;28;20027;-79
2023/08/16 06:09:50;;;;;;;8.15;4.43;;;21.40;99.90;;;;;;4961898;28;20030;-80
2023/08/16 06:12:16;;;;;;;5.88;3.90;;;21.50;99.90;;;;;;4984374;28;20123;-80
2023/08/16 06:14:41;;;;;;;7.57;3.88;;;21.40;99.90;;;;;;4957011;29;20070;-79
2023/08/16 06:17:07;;;;;;;7.82;3.97;;;21.40;99.90;;;;;;4957343;28;20027;-79
2023/08/16 06:19:33;;;;;;;7.80;4.10;;;21.50;99.90;;;;;;4975257;28;20033;-78
2023/08/16 06:21:59;;;;;;;6.88;4.18;;;21.50;99.90;;;;;;4993080;28;20035;-78
2023/08/16 06:24:25;;;;;;;7.57;4.05;;;21.50;99.90;;;;;;4983397;28;20039;-79
2023/08/16 06:26:51;;;;;;;4.95;3.92;;;21.50;99.90;;;;;;4972991;28;20588;-78
2023/08/16 06:29:16;;;;;;;8.73;4.20;;;21.50;99.90;;;;;;4957217;29;20039;-79
2023/08/16 06:31:42;;;;;;;5.53;3.80;;;21.50;99.90;;;;;;4967704;28;20532;-79
2023/08/16 06:34:07;;;;;;;10.63;4.10;;;21.50;99.90;;;;;;4985315;28;20031;-79
2023/08/16 06:36:33;;;;;;;5.13;3.65;;;21.50;99.90;;;;;;4972003;28;20439;-78
2023/08/16 06:38:58;;;;;;;5.97;3.70;;;21.50;99.90;;;;;;4976818;28;20105;-79
2023/08/16 06:41:24;;;;;;;4.47;3.53;;;21.50;99.90;;;;;;4988839;28;20118;-79
2023/08/16 06:43:50;;;;;;;6.95;3.83;;;21.60;99.90;;;;;;4961685;28;20038;-79
2023/08/16 06:46:15;;;;;;;5.38;3.92;;;21.60;99.90;;;;;;4985369;28;20054;-79
2023/08/16 06:48:41;;;;;;;6.25;4.10;;;21.60;99.90;;;;;;4972585;28;20481;-78
2023/08/16 06:51:06;;;;;;;4.93;3.63;;;21.70;99.90;;;;;;4972503;28;20064;-79
2023/08/16 06:53:33;;;;;;;6.75;3.83;;;21.70;99.90;;;;;;4974005;28;20037;-77
2023/08/16 06:55:59;;;;;;;6.65;3.42;;;21.80;99.90;;;;;;4974874;28;20030;-79
2023/08/16 06:58:25;;;;;;;4.88;3.55;;;21.90;99.90;;;;;;4992091;28;20038;-79
2023/08/16 07:00:50;;;;;;;6.22;3.97;;;22.00;99.90;;;;;;4966095;28;20599;-79
2023/08/16 07:03:17;;;;;;;5.60;3.63;;;22.20;99.90;;;;;;4975930;28;20499;-79
2023/08/16 07:05:43;;;;;;;5.93;4.38;;;22.20;99.90;;;;;;4975974;28;20030;-79
2023/08/16 07:08:09;;;;;;;4.20;3.80;;;22.30;99.90;;;;;;4983994;28;20027;-79
2023/08/16 07:10:34;;;;;;;6.00;4.28;;;22.40;99.90;;;;;;4967015;28;20037;-78
2023/08/16 07:13:00;;;;;;;7.07;4.10;;;22.40;99.90;;;;;;4971356;28;20461;-79
2023/08/16 07:15:26;;;;;;;5.88;3.85;;;22.40;99.90;;;;;;4991821;28;20477;-79
2023/08/16 07:17:51;;;;;;;4.72;3.33;;;22.40;99.90;;;;;;4985711;28;20178;-79
2023/08/16 07:20:17;;;;;;;5.53;3.72;;;22.40;99.90;;;;;;4980682;28;20041;-78
2023/08/16 07:22:42;;;;;;;7.47;3.70;;;22.40;99.90;;;;;;4990984;28;20121;-79
2023/08/16 07:25:10;;;;;;;4.93;3.28;;;22.40;99.90;;;;;;4960108;28;20024;-79
2023/08/16 07:27:36;;;;;;;6.35;3.58;;;22.40;99.90;;;;;;4956431;28;20047;-79
2023/08/16 07:30:04;;;;;;;4.63;3.60;;;22.40;99.90;;;;;;4978062;28;20039;-78
2023/08/16 07:32:30;;;;;;;8.05;3.70;;;22.40;99.90;;;;;;4984788;28;20030;-79
2023/08/16 07:34:55;;;;;;;5.68;3.13;;;22.40;99.90;;;;;;4979350;28;20081;-78
2023/08/16 07:37:21;;;;;;;8.57;4.40;;;22.40;99.90;;;;;;4962521;28;20085;-79
2023/08/16 07:39:47;;;;;;;36.15;9.98;;;22.40;99.90;;;;;;4975776;28;20488;-79
2023/08/16 07:42:12;;;;;;;17.65;6.07;;;22.40;99.90;;;;;;4988863;28;20133;-79
2023/08/16 07:44:38;;;;;;;34.42;10.80;;;22.40;99.90;;;;;;4990598;28;20043;-79
2023/08/16 07:47:04;;;;;;;10.05;5.22;;;22.40;99.90;;;;;;4964287;28;20035;-79
2023/08/16 07:49:29;;;;;;;60.25;15.55;;;22.40;99.90;;;;;;4987356;28;20030;-79
2023/08/16 07:51:56;;;;;;;94.03;25.05;;;22.40;99.90;;;;;;4975953;28;20031;-79
2023/08/16 07:54:22;;;;;;;46.15;15.00;;;22.40;99.90;;;;;;4981671;28;20027;-79
2023/08/16 07:56:47;;;;;;;15.82;7.13;;;22.50;99.90;;;;;;4956054;28;20026;-79
2023/08/16 07:59:13;;;;;;;14.63;5.78;;;22.50;99.90;;;;;;4972011;28;20031;-79
2023/08/16 08:01:39;;;;;;;10.88;4.88;;;22.50;99.90;;;;;;4971618;28;20035;-79
2023/08/16 08:04:05;;;;;;;9.30;4.05;;;22.50;99.90;;;;;;4956139;28;20383;-79
2023/08/16 08:06:30;;;;;;;8.57;4.40;;;22.60;99.90;;;;;;4955560;29;20110;-79
2023/08/16 08:08:56;;;;;;;10.65;4.43;;;22.60;99.90;;;;;;4955288;29;20031;-79
2023/08/16 08:11:22;;;;;;;6.68;3.67;;;22.60;99.90;;;;;;4956497;29;20031;-79
2023/08/16 08:13:47;;;;;;;6.88;3.78;;;22.60;99.90;;;;;;4955200;28;20124;-78
2023/08/16 08:16:13;;;;;;;4.93;3.50;;;22.60;99.90;;;;;;4956652;29;20034;-78
2023/08/16 08:18:39;;;;;;;7.85;4.05;;;22.60;99.90;;;;;;4956251;29;20023;-78
2023/08/16 08:21:04;;;;;;;25.67;9.63;;;22.70;99.90;;;;;;4956400;29;20027;-79
2023/08/16 08:23:30;;;;;;;37.33;10.43;;;22.70;99.90;;;;;;4955560;28;20393;-79
2023/08/16 08:25:55;;;;;;;28.50;7.90;;;22.70;99.90;;;;;;4970707;28;20139;-79
2023/08/16 08:28:22;;;;;;;31.23;8.00;;;22.80;99.90;;;;;;4971434;28;20027;-79
2023/08/16 08:30:48;;;;;;;17.88;6.38;;;22.80;99.90;;;;;;4954687;29;20039;-79
2023/08/16 08:33:13;;;;;;;15.35;5.00;;;22.90;99.90;;;;;;4971244;28;20031;-79
2023/08/16 08:35:39;;;;;;;6.47;3.58;;;22.90;99.90;;;;;;4954722;29;20046;-79
2023/08/16 08:38:04;;;;;;;6.78;3.70;;;22.90;99.90;;;;;;4955206;29;20105;-79
2023/08/16 08:40:31;;;;;;;12.77;5.30;;;22.90;99.90;;;;;;4955537;29;20038;-79
2023/08/16 08:42:58;;;;;;;6.47;3.35;;;23.00;99.90;;;;;;4955620;28;20479;-79
2023/08/16 08:45:26;;;;;;;6.20;3.08;;;23.10;99.90;;;;;;4965714;28;20075;-79
2023/08/16 08:47:53;;;;;;;24.00;8.35;;;23.20;99.90;;;;;;4974533;28;20023;-79
2023/08/16 08:50:19;;;;;;;35.85;10.32;;;23.30;99.90;;;;;;4958082;28;20035;-79
2023/08/16 08:52:51;;;;;;;25.27;7.32;;;23.40;99.90;;;;;;4974918;28;20023;-79
2023/08/16 08:55:20;;;;;;;37.08;10.13;;;23.50;99.90;;;;;;4958306;28;20118;-79
2023/08/16 08:57:50;;;;;;;16.95;6.88;;;23.60;99.90;;;;;;4973458;28;20073;-79
2023/08/16 09:00:21;;;;;;;27.13;8.20;;;23.60;99.90;;;;;;4957904;28;20031;-79
2023/08/16 09:02:50;;;;;;;20.08;6.30;;;23.70;99.90;;;;;;4957358;28;20030;-79
2023/08/16 09:05:20;;;;;;;69.55;18.50;;;23.60;99.90;;;;;;4957729;28;20034;-79
2023/08/16 09:07:46;;;;;;;27.20;7.75;;;23.70;99.90;;;;;;4973362;28;20027;-82
2023/08/16 09:10:13;;;;;;;40.10;11.50;;;23.70;99.90;;;;;;4958285;28;20066;-80
2023/08/16 09:12:39;;;;;;;26.50;7.70;;;23.70;99.90;;;;;;4974276;28;20027;-80
2023/08/16 09:15:07;;;;;;;13.98;5.05;;;23.90;99.90;;;;;;4974955;28;20453;-80
2023/08/16 09:17:33;;;;;;;26.13;7.95;;;24.00;99.90;;;;;;4973090;28;20035;-80
2023/08/16 09:20:00;;;;;;;15.80;5.13;;;24.20;99.90;;;;;;4974055;28;20035;-80
2023/08/16 09:22:27;;;;;;;9.50;4.93;;;24.50;99.90;;;;;;4974686;28;20035;-79
2023/08/16 09:24:56;;;;;;;15.35;4.97;;;24.60;99.90;;;;;;4957073;28;20374;-80
2023/08/16 09:27:25;;;;;;;12.50;4.55;;;24.70;99.90;;;;;;4957597;28;20035;-80
2023/08/16 09:29:57;;;;;;;9.82;3.25;;;24.80;99.90;;;;;;4973062;28;20031;-80
2023/08/16 09:32:26;;;;;;;5.30;2.83;;;24.90;99.90;;;;;;4957728;28;20031;-80
2023/08/16 09:34:53;;;;;;;6.32;2.95;;;25.00;99.90;;;;;;4972993;28;20034;-79
2023/08/16 09:37:20;;;;;;;8.75;3.47;;;25.00;99.90;;;;;;4957743;28;20033;-80
2023/08/16 09:39:56;;;;;;;5.53;2.97;;;25.20;99.90;;;;;;4956928;28;20428;-80
2023/08/16 09:42:29;;;;;;;5.18;2.38;;;25.30;99.90;;;;;;4974615;28;20038;-80
2023/08/16 09:44:55;;;;;;;9.07;3.20;;;25.40;99.90;;;;;;4974152;28;20046;-79
2023/08/16 09:47:22;;;;;;;5.43;2.75;;;25.40;99.90;;;;;;4957617;28;20523;-80
2023/08/16 09:49:49;;;;;;;4.28;2.72;;;25.50;99.90;;;;;;4956941;28;20027;-80
2023/08/16 09:52:15;;;;;;;6.35;2.85;;;25.40;99.90;;;;;;4957867;28;20123;-80
2023/08/16 09:54:41;;;;;;;7.28;3.10;;;25.50;99.90;;;;;;4974151;28;20027;-79
2023/08/16 09:57:07;;;;;;;4.70;3.17;;;25.50;99.90;;;;;;4957324;28;20030;-80
2023/08/16 09:59:32;;;;;;;3.95;2.92;;;25.70;99.90;;;;;;4974722;28;20034;-80
2023/08/16 10:01:59;;;;;;;3.65;2.60;;;25.70;99.90;;;;;;4974061;28;20384;-80
2023/08/16 10:04:26;;;;;;;5.40;2.85;;;25.60;99.90;;;;;;4974528;28;20030;-80
2023/08/16 10:06:52;;;;;;;6.30;2.50;;;25.60;99.90;;;;;;4956961;28;20369;-80
2023/08/16 10:09:19;;;;;;;3.80;2.33;;;25.70;99.90;;;;;;4957545;28;20031;-80
2023/08/16 10:11:46;;;;;;;5.68;2.67;;;25.70;99.90;;;;;;4957033;28;20035;-80
2023/08/16 10:14:13;;;;;;;5.65;2.40;;;25.70;99.90;;;;;;4957744;28;20555;-80
2023/08/16 10:16:38;;;;;;;3.28;2.55;;;25.70;99.90;;;;;;4972996;28;20030;-80
2023/08/16 10:19:06;;;;;;;4.78;2.80;;;25.80;99.90;;;;;;4956801;28;20420;-82
2023/08/16 10:21:35;;;;;;;6.82;2.58;;;25.80;99.90;;;;;;4973472;28;20054;-81
2023/08/16 10:24:01;;;;;;;3.03;2.60;;;25.80;99.90;;;;;;4957034;28;20387;-81
2023/08/16 10:26:30;;;;;;;4.95;2.80;;;25.80;99.90;;;;;;4973452;28;20030;-82
2023/08/16 10:29:00;;;;;;;4.65;2.80;;;25.70;99.90;;;;;;4958430;28;20030;-80
2023/08/16 10:31:33;;;;;;;3.33;2.50;;;25.70;99.90;;;;;;4960702;28;20543;-80
2023/08/16 10:34:00;;;;;;;5.25;2.80;;;25.70;99.90;;;;;;4976066;28;20031;-81
2023/08/16 10:36:26;;;;;;;4.70;2.60;;;25.80;99.90;;;;;;4977404;28;20030;-81
2023/08/16 10:38:55;;;;;;;4.03;3.20;;;25.80;99.90;;;;;;4975766;28;20033;-80
2023/08/16 10:41:21;;;;;;;5.22;2.95;;;25.90;99.90;;;;;;4960422;28;20058;-80
2023/08/16 10:43:51;;;;;;;5.55;3.05;;;26.10;99.90;;;;;;4976917;28;20385;-81
2023/08/16 10:46:27;;;;;;;5.38;3.13;;;26.30;99.90;;;;;;4960033;28;20046;-81
2023/08/16 10:49:05;;;;;;;5.53;2.90;;;26.40;99.90;;;;;;4976742;28;20062;-81
2023/08/16 10:51:45;;;;;;;6.80;2.78;;;26.40;99.90;;;;;;4960245;28;20041;-80
2023/08/16 10:54:11;;;;;;;4.03;2.72;;;26.50;99.90;;;;;;4960156;28;20037;-81
2023/08/16 10:56:44;;;;;;;5.90;3.15;;;26.60;99.90;;;;;;4976009;28;20030;-80
2023/08/16 10:59:10;;;;;;;27.45;8.45;;;26.50;99.90;;;;;;4976391;28;20027;-81
2023/08/16 11:01:46;;;;;;;12.27;5.72;;;26.40;99.90;;;;;;4976904;28;20035;-81
2023/08/16 11:04:12;;;;;;;53.63;13.43;;;26.30;99.90;;;;;;4977325;28;20086;-81
2023/08/16 11:06:39;;;;;;;17.08;6.90;;;26.20;99.90;;;;;;4975720;28;20051;-80
2023/08/16 11:09:06;;;;;;;35.63;10.40;;;26.20;99.90;;;;;;4959170;28;20035;-82
2023/08/16 11:11:31;;;;;;;24.48;8.00;;;26.10;99.90;;;;;;4977050;28;20027;-81
2023/08/16 11:14:00;;;;;;;33.85;9.70;;;26.20;99.90;;;;;;4976485;28;20085;-81
2023/08/16 11:16:30;;;;;;;27.02;8.25;;;26.10;99.90;;;;;;4959929;28;20027;-81
2023/08/16 11:18:59;;;;;;;20.08;6.97;;;26.20;99.90;;;;;;4959260;28;20079;-82
2023/08/16 11:21:25;;;;;;;17.42;7.05;;;26.30;99.90;;;;;;4959774;28;20487;-81
2023/08/16 11:23:53;;;;;;;17.55;6.65;;;26.40;99.90;;;;;;4975046;28;20031;-80
2023/08/16 11:26:19;;;;;;;20.17;7.15;;;26.50;99.90;;;;;;4959837;28;20022;-81
2023/08/16 11:28:45;;;;;;;27.92;10.40;;;26.60;99.90;;;;;;4975426;28;20034;-81
2023/08/16 11:31:11;;;;;;;23.58;8.60;;;26.60;99.90;;;;;;4977173;28;20376;-82
2023/08/16 11:33:40;;;;;;;24.23;8.18;;;26.60;99.90;;;;;;4959553;28;20030;-82
2023/08/16 11:36:08;;;;;;;21.55;8.05;;;26.60;99.90;;;;;;4959143;28;20204;-82
2023/08/16 11:38:34;;;;;;;41.58;13.38;;;26.60;99.90;;;;;;4976267;28;20023;-81
2023/08/16 11:41:03;;;;;;;47.22;14.02;;;26.70;99.90;;;;;;4975883;28;20033;-81
2023/08/16 11:43:30;;;;;;;13.70;6.15;;;26.80;99.90;;;;;;4976647;28;20038;-81
2023/08/16 11:46:01;;;;;;;15.43;6.57;;;26.80;99.90;;;;;;4975523;28;20101;-80
2023/08/16 11:48:30;;;;;;;23.33;8.15;;;26.80;99.90;;;;;;4959537;28;20023;-81
2023/08/16 11:50:57;;;;;;;13.20;6.68;;;26.80;99.90;;;;;;4976001;28;20046;-80
2023/08/16 11:53:31;;;;;;;16.30;5.15;;;26.90;99.90;;;;;;4975215;28;20034;-80
2023/08/16 11:56:11;;;;;;;12.13;5.03;;;26.90;99.90;;;;;;4976332;28;20135;-80
2023/08/16 11:58:48;;;;;;;9.18;3.70;;;26.90;99.90;;;;;;4976481;28;20468;-81
2023/08/16 12:01:21;;;;;;;10.65;3.95;;;27.00;99.90;;;;;;4959094;28;20035;-81
2023/08/16 12:03:47;;;;;;;7.07;3.75;;;27.10;99.90;;;;;;4976003;28;20023;-81
2023/08/16 12:06:13;;;;;;;5.40;3.50;;;27.10;99.90;;;;;;4958577;28;20034;-81
2023/08/16 12:08:53;;;;;;;5.90;3.20;;;27.20;99.90;;;;;;4958234;28;20037;-81
2023/08/16 12:11:35;;;;;;;8.25;3.13;;;27.20;99.90;;;;;;4958857;28;20439;-81
2023/08/16 12:14:02;;;;;;;4.60;3.10;;;27.40;99.90;;;;;;4957975;28;20460;-81
2023/08/16 12:16:28;;;;;;;4.60;2.97;;;27.40;99.90;;;;;;4958377;28;20026;-81
2023/08/16 12:18:53;;;;;;;5.90;2.92;;;27.60;99.90;;;;;;4957774;28;20049;-81
2023/08/16 12:21:19;;;;;;;6.07;3.13;;;27.70;99.90;;;;;;4958251;28;20066;-81
2023/08/16 12:23:46;;;;;;;4.95;3.00;;;27.80;99.90;;;;;;4958276;28;20033;-81
2023/08/16 12:26:15;;;;;;;4.97;3.05;;;27.90;99.90;;;;;;4957554;28;20023;-82
2023/08/16 12:28:41;;;;;;;4.00;3.03;;;28.00;99.90;;;;;;4958403;28;20035;-82
2023/08/16 12:31:07;;;;;;;5.65;3.58;;;28.00;99.90;;;;;;4957834;28;20127;-82
2023/08/16 12:33:33;;;;;;;3.63;2.80;;;28.00;99.90;;;;;;4975311;28;20380;-81
2023/08/16 12:35:59;;;;;;;28.40;7.95;;;28.10;99.90;;;;;;4957578;28;20097;-81
2023/08/16 12:38:25;;;;;;;24.50;6.28;;;28.20;99.90;;;;;;4975424;28;20491;-82
2023/08/16 12:40:50;;;;;;;41.00;11.00;;;28.30;99.90;;;;;;4974627;28;20105;-80
2023/08/16 12:43:18;;;;;;;30.83;8.48;;;28.30;99.90;;;;;;4975127;28;20465;-81